.
WxDataArchive / Data Records for 2011-08-09
2011-08-08 August 2011 2011-08-10

Data Records for Tuesday, 09 August 2011

Time	Temp	Chill	HIndex	Humid	Dewpt	 Wind 	HiWind	WindDir	Rain 	Barom 
-----	----	-----	------	-----	-----	------	------	-------	-----	----- 
00:00	70.6	70.6	70.6	93	68.5	2	5	90	0.00	29.581 
00:05	70.6	70.6	70.6	93	68.5	2	6	90	0.00	29.581 
00:10	70.4	70.4	70.4	93	68.3	1	6	90	0.00	29.581 
00:15	70.3	70.3	70.3	93	68.2	0	2	90	0.00	29.599 
00:20	69.9	69.9	69.9	93	67.8	1	4	90	0.00	29.599 
00:25	69.6	69.6	69.6	93	67.5	0	1	90	0.00	29.599 
00:30	69.3	69.3	69.3	93	67.2	0	1	90	0.00	29.589 
00:35	69.1	69.1	69.1	93	67.0	0	0	---	0.00	29.589 
00:40	69.1	69.1	69.1	93	67.0	0	1	90	0.00	29.589 
00:45	69.3	69.3	69.3	93	67.2	0	2	90	0.00	29.585 
00:50	69.6	69.6	69.6	94	67.8	0	0	---	0.00	29.585 
00:55	69.6	69.6	69.6	94	67.8	0	2	90	0.00	29.585 
01:00	69.6	69.6	69.6	94	67.8	0	0	---	0.00	29.595 
01:05	69.6	69.6	69.6	94	67.8	0	2	90	0.00	29.595 
01:10	69.6	69.6	69.6	94	67.8	0	1	90	0.00	29.595 
01:15	69.6	69.6	69.6	94	67.8	0	1	90	0.00	29.585 
01:20	69.6	69.6	69.6	94	67.8	0	0	---	0.00	29.585 
01:25	69.6	69.6	69.6	94	67.8	0	0	---	0.00	29.585 
01:30	69.6	69.6	69.6	94	67.8	0	2	90	0.00	29.578 
01:35	69.4	69.4	69.4	94	67.6	0	0	---	0.00	29.578 
01:40	69.1	69.1	69.1	94	67.3	0	0	---	0.00	29.578 
01:45	69.1	69.1	69.1	94	67.3	0	1	90	0.00	29.584 
01:50	69.1	69.1	69.1	94	67.3	0	0	---	0.00	29.584 
01:55	68.9	68.9	68.9	94	67.1	0	0	---	0.00	29.584 
02:00	68.9	68.9	68.9	94	67.1	0	0	---	0.00	29.585 
02:05	68.8	68.8	68.8	94	67.0	0	0	---	0.00	29.585 
02:10	68.8	68.8	68.8	94	67.0	0	0	---	0.00	29.585 
02:15	68.8	68.8	68.8	95	67.3	0	0	---	0.00	29.600 
02:20	68.6	68.6	68.6	94	66.8	0	2	90	0.00	29.600 
02:25	68.3	68.3	68.3	94	66.5	0	0	---	0.00	29.600 
02:30	68.1	68.1	68.1	94	66.3	0	0	---	0.00	29.599 
02:35	67.8	67.8	67.8	94	66.0	0	0	---	0.00	29.599 
02:40	67.8	67.8	67.8	94	66.0	0	0	---	0.00	29.599 
02:45	67.6	67.6	67.6	94	65.8	0	0	---	0.00	29.599 
02:50	67.6	67.6	67.6	94	65.8	0	0	---	0.00	29.599 
02:55	67.8	67.8	67.8	95	66.3	0	0	---	0.00	29.599 
03:00	67.6	67.6	67.6	95	66.1	0	0	---	0.00	29.603 
03:05	67.6	67.6	67.6	95	66.1	0	0	---	0.00	29.603 
03:10	67.4	67.4	67.4	94	65.6	0	0	---	0.00	29.603 
03:15	67.4	67.4	67.4	94	65.6	0	1	90	0.00	29.597 
03:20	67.3	67.3	67.3	95	65.8	0	1	90	0.00	29.597 
03:25	67.3	67.3	67.3	95	65.8	0	0	---	0.00	29.597 
03:30	67.3	67.3	67.3	95	65.8	0	0	---	0.00	29.589 
03:35	67.3	67.3	67.3	95	65.8	0	0	---	0.00	29.589 
03:40	67.3	67.3	67.3	95	65.8	0	0	---	0.00	29.589 
03:45	67.3	67.3	67.3	95	65.8	0	0	---	0.00	29.589 
03:50	67.3	67.3	67.3	95	65.8	0	0	---	0.00	29.589 
03:55	67.3	67.3	67.3	95	65.8	0	0	---	0.00	29.589 
04:00	67.3	67.3	67.3	95	65.8	0	0	---	0.00	29.582 
04:05	67.3	67.3	67.3	95	65.8	0	0	---	0.00	29.582 
04:10	67.3	67.3	67.3	95	65.8	0	0	---	0.00	29.582 
04:15	67.4	67.4	67.4	95	65.9	0	0	---	0.00	29.578 
04:20	67.4	67.4	67.4	95	65.9	0	1	90	0.00	29.578 
04:25	67.6	67.6	67.6	95	66.1	0	0	---	0.00	29.578 
04:30	67.6	67.6	67.6	95	66.1	0	0	---	0.00	29.579 
04:35	67.6	67.6	67.6	95	66.1	0	0	---	0.00	29.579 
04:40	67.6	67.6	67.6	95	66.1	0	0	---	0.00	29.579 
04:45	67.6	67.6	67.6	95	66.1	0	0	---	0.00	29.575 
04:50	67.6	67.6	67.6	95	66.1	0	1	90	0.00	29.575 
04:55	67.8	67.8	67.8	95	66.3	0	1	90	0.01	29.575 
05:00	67.8	67.8	67.8	95	66.3	0	1	90	0.00	29.569 
05:05	67.8	67.8	67.8	95	66.3	0	2	90	0.00	29.569 
05:10	67.9	67.9	67.9	95	66.4	0	2	90	0.00	29.569 
05:15	67.9	67.9	67.9	95	66.4	0	2	90	0.00	29.565 
05:20	67.8	67.8	67.8	95	66.3	0	2	90	0.00	29.565 
05:25	67.8	67.8	67.8	95	66.3	0	2	90	0.00	29.565 
05:30	67.8	67.8	67.8	95	66.3	0	1	90	0.00	29.563 
05:35	67.8	67.8	67.8	95	66.3	0	1	90	0.00	29.563 
05:40	67.6	67.6	67.6	95	66.1	0	0	---	0.00	29.563 
05:45	67.8	67.8	67.8	95	66.3	0	1	90	0.00	29.566 
05:50	67.6	67.6	67.6	95	66.1	0	1	90	0.00	29.566 
05:55	67.6	67.6	67.6	95	66.1	0	1	90	0.00	29.566 
06:00	67.4	67.4	67.4	95	65.9	0	1	90	0.00	29.565 
06:05	67.3	67.3	67.3	95	65.8	0	2	90	0.00	29.565 
06:10	67.3	67.3	67.3	95	65.8	0	2	90	0.00	29.565 
06:15	67.3	67.3	67.3	95	65.8	0	1	90	0.00	29.570 
06:20	67.3	67.3	67.3	95	65.8	0	1	90	0.00	29.570 
06:25	67.3	67.3	67.3	95	65.8	0	1	90	0.00	29.570 
06:30	67.3	67.3	67.3	95	65.8	0	1	90	0.00	29.575 
06:35	67.3	67.3	67.3	95	65.8	0	1	90	0.00	29.575 
06:40	67.3	67.3	67.3	95	65.8	0	0	---	0.00	29.575 
06:45	67.1	67.1	67.1	95	65.6	0	0	---	0.00	29.583 
06:50	67.1	67.1	67.1	95	65.6	0	0	---	0.00	29.583 
06:55	67.1	67.1	67.1	95	65.6	0	1	90	0.00	29.583 
07:00	67.1	67.1	67.1	95	65.6	0	2	90	0.00	29.585 
07:05	67.1	67.1	67.1	95	65.6	0	2	90	0.00	29.585 
07:10	67.1	67.1	67.1	95	65.6	0	1	90	0.00	29.585 
07:15	67.1	67.1	67.1	95	65.6	0	1	90	0.00	29.592 
07:20	67.1	67.1	67.1	95	65.6	0	1	90	0.00	29.592 
07:25	67.1	67.1	67.1	95	65.6	0	1	90	0.00	29.592 
07:30	67.1	67.1	67.1	95	65.6	0	1	90	0.00	29.602 
07:35	67.3	67.3	67.3	95	65.8	0	1	90	0.00	29.602 
07:40	67.3	67.3	67.3	95	65.8	0	1	90	0.00	29.602 
07:45	67.4	67.4	67.4	95	65.9	0	3	90	0.00	29.606 
07:50	67.6	67.6	67.6	95	66.1	1	4	90	0.00	29.606 
07:55	67.8	67.8	67.8	95	66.3	0	2	90	0.00	29.606 
08:00	67.9	67.9	67.9	95	66.4	0	1	90	0.00	29.607 
08:05	68.1	68.1	68.1	94	66.3	0	1	90	0.00	29.607 
08:10	68.3	68.3	68.3	94	66.5	0	3	292	0.00	29.607 
08:15	68.4	68.4	68.4	94	66.6	0	2	292	0.00	29.613 
08:20	68.4	68.4	68.4	93	66.3	1	2	292	0.00	29.613 
08:25	68.8	68.8	68.8	93	66.7	0	2	292	0.00	29.613 
08:30	68.9	68.9	68.9	92	66.5	0	3	292	0.00	29.618 
08:35	68.9	68.9	68.9	92	66.5	1	4	292	0.00	29.618 
08:40	69.1	69.1	69.1	90	66.0	2	4	292	0.00	29.618 
08:45	69.3	69.3	69.3	89	65.9	1	4	315	0.00	29.626 
08:50	69.8	69.8	69.8	88	66.1	1	3	315	0.00	29.626 
08:55	70.3	70.3	70.3	87	66.2	1	6	270	0.00	29.626 
09:00	70.6	70.6	70.6	86	66.2	1	4	315	0.00	29.624 
09:05	70.8	70.8	70.8	85	66.1	2	9	270	0.00	29.624 
09:10	70.9	70.9	70.9	84	65.8	2	5	270	0.00	29.624 
09:15	71.5	71.5	71.5	85	66.7	1	4	315	0.00	29.633 
09:20	71.6	71.6	71.6	84	66.5	2	4	292	0.00	29.633 
09:25	71.6	71.6	71.6	83	66.2	2	3	315	0.00	29.633 
09:30	71.8	71.8	71.8	83	66.3	2	5	315	0.00	29.636 
09:35	71.8	71.8	71.8	82	66.0	3	6	270	0.00	29.636 
09:40	71.8	71.8	71.8	81	65.6	3	5	270	0.00	29.636 
09:45	72.0	72.0	72.0	81	65.8	3	6	292	0.00	29.645 
09:50	72.1	72.1	72.1	80	65.6	3	5	292	0.00	29.645 
09:55	72.5	72.5	72.5	79	65.6	2	5	292	0.00	29.645 
10:00	73.0	73.0	73.0	78	65.7	3	7	292	0.00	29.647 
10:05	73.2	73.2	73.2	77	65.5	2	4	292	0.00	29.647 
10:10	73.3	73.3	73.3	77	65.6	3	6	270	0.00	29.647 
10:15	73.3	73.3	73.3	77	65.6	3	6	292	0.00	29.650 
10:20	73.9	73.9	73.9	77	66.2	2	4	292	0.00	29.650 
10:25	74.2	74.2	74.2	75	65.8	4	6	270	0.00	29.650 
10:30	74.4	74.4	74.4	74	65.6	3	6	270	0.00	29.651 
10:35	74.6	74.6	74.6	73	65.4	3	5	292	0.00	29.651 
10:40	74.4	74.4	74.4	73	65.2	3	7	270	0.00	29.651 
10:45	74.9	74.9	74.9	73	65.6	3	5	270	0.00	29.653 
10:50	75.4	75.4	77.1	70	64.9	2	5	292	0.00	29.653 
10:55	76.0	76.0	77.7	69	65.1	3	9	338	0.00	29.653 
11:00	76.1	76.1	77.9	67	64.3	3	6	270	0.00	29.653 
11:05	76.1	76.1	77.8	68	64.8	3	6	270	0.00	29.653 
11:10	76.1	76.1	77.8	69	65.2	3	5	270	0.00	29.653 
11:15	76.3	76.3	78.1	66	64.1	3	7	270	0.00	29.660 
11:20	76.5	76.5	78.3	65	63.8	3	7	270	0.00	29.660 
11:25	77.0	77.0	78.8	65	64.3	3	5	270	0.00	29.660 
11:30	77.0	77.0	78.8	64	63.9	3	6	270	0.00	29.660 
11:35	77.7	77.7	79.5	65	65.0	3	6	270	0.00	29.660 
11:40	77.7	77.7	79.5	65	65.0	3	6	270	0.00	29.660 
11:45	77.7	77.7	79.5	64	64.5	3	7	292	0.00	29.658 
11:50	77.9	77.9	79.6	60	62.9	3	6	292	0.00	29.658 
11:55	78.1	78.1	79.9	62	64.0	3	7	270	0.00	29.658 
12:00	78.8	78.8	80.6	62	64.7	2	4	315	0.00	29.659 
12:05	79.2	79.2	80.7	57	62.6	3	7	270	0.00	29.659 
12:10	79.4	79.4	80.9	58	63.3	2	4	292	0.00	29.659 
12:15	79.4	79.4	81.0	59	63.8	4	9	270	0.00	29.659 
12:20	79.2	79.2	80.7	58	63.1	4	6	270	0.00	29.659 
12:25	79.4	79.4	80.9	58	63.3	3	7	270	0.00	29.659 
12:30	79.4	79.4	80.9	58	63.3	4	7	270	0.00	29.660 
12:35	79.6	79.6	81.2	58	63.5	3	6	270	0.00	29.660 
12:40	79.9	79.9	81.4	57	63.3	4	9	270	0.00	29.660 
12:45	80.3	80.3	81.7	56	63.1	3	6	315	0.00	29.656 
12:50	80.7	80.7	82.4	58	64.5	2	5	270	0.00	29.656 
12:55	81.1	81.1	82.6	56	63.9	3	7	270	0.00	29.656 
13:00	80.9	80.9	82.3	55	63.2	4	8	270	0.00	29.652 
13:05	80.9	80.9	82.4	56	63.7	4	9	270	0.00	29.652 
13:10	80.9	80.9	82.4	56	63.7	4	6	270	0.00	29.652 
13:15	81.1	81.1	82.8	57	64.4	3	6	270	0.00	29.648 
13:20	81.2	81.2	82.9	57	64.5	3	6	270	0.00	29.648 
13:25	81.2	81.2	82.7	56	64.0	4	10	270	0.00	29.648 
13:30	81.1	81.1	82.6	56	63.9	4	9	270	0.00	29.650 
13:35	80.9	80.9	82.4	56	63.7	5	8	270	0.00	29.650 
13:40	80.7	80.7	82.3	57	64.0	4	7	270	0.00	29.650 
13:45	81.4	81.4	83.0	56	64.2	2	6	270	0.00	29.646 
13:50	81.6	81.6	83.4	57	64.9	3	9	270	0.00	29.646 
13:55	81.2	81.2	82.7	56	64.0	4	7	270	0.00	29.646 
14:00	81.4	81.4	83.0	56	64.2	3	6	270	0.00	29.640 
14:05	81.8	81.8	83.6	57	65.0	3	7	338	0.00	29.640 
14:10	81.8	81.8	83.5	56	64.5	5	10	270	0.00	29.640 
14:15	82.0	82.0	83.7	56	64.7	4	6	270	0.00	29.639 
14:20	81.8	81.8	83.5	56	64.5	4	7	270	0.00	29.639 
14:25	82.0	82.0	84.1	58	65.7	3	6	270	0.00	29.639 
14:30	81.8	81.8	83.6	57	65.0	4	9	270	0.00	29.637 
14:35	82.0	82.0	83.9	57	65.2	3	6	270	0.00	29.637 
14:40	82.0	82.0	83.7	56	64.7	3	6	270	0.00	29.637 
14:45	82.0	82.0	83.7	56	64.7	4	10	270	0.00	29.631 
14:50	82.6	82.6	84.3	55	64.8	4	7	270	0.00	29.631 
14:55	82.4	82.4	84.4	57	65.6	4	6	270	0.00	29.631 
15:00	82.6	82.6	84.3	55	64.8	3	6	270	0.00	29.624 
15:05	83.2	83.2	84.9	54	64.8	3	7	270	0.00	29.624 
15:10	83.4	83.4	85.2	54	65.0	4	6	270	0.00	29.624 
15:15	83.6	83.6	85.7	55	65.7	3	5	270	0.00	29.618 
15:20	83.4	83.4	85.4	55	65.5	3	7	270	0.00	29.618 
15:25	83.8	83.8	85.3	52	64.3	3	7	270	0.00	29.618 
15:30	83.8	83.8	85.3	52	64.3	3	7	270	0.00	29.615 
15:35	84.0	84.0	85.6	52	64.4	3	5	270	0.00	29.615 
15:40	84.1	84.1	85.5	51	64.0	3	6	270	0.00	29.615 
15:45	84.1	84.1	85.0	49	62.8	3	7	270	0.00	29.603 
15:50	84.5	84.5	85.8	50	63.8	3	6	270	0.00	29.603 
15:55	85.1	85.1	86.6	50	64.3	2	5	270	0.00	29.603 
16:00	84.9	84.9	86.3	50	64.2	3	7	270	0.00	29.602 
16:05	84.7	84.7	86.3	51	64.5	3	6	270	0.00	29.602 
16:10	84.7	84.7	86.5	52	65.1	2	5	270	0.00	29.602 
16:15	84.9	84.9	86.3	50	64.2	3	7	270	0.00	29.596 
16:20	84.7	84.7	85.8	49	63.4	4	6	270	0.00	29.596 
16:25	84.5	84.5	85.8	50	63.8	3	9	270	0.00	29.596 
16:30	84.3	84.3	86.0	52	64.7	2	5	270	0.00	29.589 
16:35	84.3	84.3	85.5	50	63.6	3	5	270	0.00	29.589 
16:40	84.5	84.5	86.3	52	64.9	2	5	248	0.00	29.589 
16:45	84.3	84.3	85.7	51	64.2	3	7	270	0.00	29.583 
16:50	84.5	84.5	86.3	52	64.9	3	6	270	0.00	29.583 
16:55	84.3	84.3	86.2	53	65.3	4	7	270	0.00	29.583 
17:00	84.1	84.1	85.7	52	64.5	3	7	270	0.00	29.586 
17:05	84.0	84.0	85.8	53	65.0	3	6	270	0.00	29.586 
17:10	84.3	84.3	85.7	51	64.2	3	6	270	0.00	29.586 
17:15	83.6	83.6	85.0	52	64.1	3	6	270	0.00	29.588 
17:20	83.0	83.0	84.5	53	64.1	2	6	270	0.00	29.588 
17:25	82.6	82.6	84.0	53	63.7	3	7	292	0.00	29.588 
17:30	82.6	82.6	84.1	54	64.2	3	7	270	0.00	29.580 
17:35	83.0	83.0	84.5	53	64.1	2	6	270	0.00	29.580 
17:40	83.0	83.0	84.1	51	63.0	3	7	270	0.00	29.580 
17:45	82.6	82.6	83.6	51	62.6	3	6	270	0.00	29.579 
17:50	81.2	81.2	82.1	51	61.3	3	7	270	0.00	29.579 
17:55	78.1	78.1	79.6	56	61.1	4	15	292	0.00	29.579 
18:00	74.0	74.0	74.0	67	62.3	4	9	315	0.01	29.606 
18:05	72.7	72.7	72.7	73	63.5	0	2	292	0.00	29.606 
18:10	72.1	72.1	72.1	77	64.5	2	4	315	0.00	29.606 
18:15	72.1	72.1	72.1	80	65.6	1	3	292	0.00	29.620 
18:20	72.7	72.7	72.7	81	66.5	2	7	292	0.00	29.620 
18:25	73.9	73.9	73.9	77	66.2	2	6	292	0.00	29.620 
18:30	74.6	74.6	74.6	74	65.7	3	6	270	0.00	29.606 
18:35	75.1	75.1	76.5	73	65.8	2	6	270	0.00	29.606 
18:40	75.6	75.6	77.0	73	66.3	1	3	315	0.00	29.606 
18:45	76.0	76.0	77.5	72	66.3	1	4	315	0.00	29.608 
18:50	76.3	76.3	78.0	70	65.8	2	5	270	0.00	29.608 
18:55	76.7	76.7	78.4	69	65.7	2	5	270	0.00	29.608 
19:00	76.8	76.8	78.6	67	65.0	4	7	270	0.00	29.603 
19:05	76.8	76.8	78.6	67	65.0	3	5	270	0.00	29.603 
19:10	77.0	77.0	78.8	66	64.8	3	6	315	0.00	29.603 
19:15	77.0	77.0	78.8	66	64.8	3	7	292	0.00	29.602 
19:20	77.0	77.0	78.8	65	64.3	3	9	292	0.00	29.602 
19:25	77.0	77.0	78.8	66	64.8	3	9	315	0.00	29.602 
19:30	77.0	77.0	78.8	65	64.3	3	7	270	0.00	29.612 
19:35	77.0	77.0	78.8	64	63.9	3	5	292	0.00	29.612 
19:40	77.0	77.0	78.8	65	64.3	2	5	292	0.00	29.612 
19:45	76.8	76.8	78.6	63	63.2	3	5	270	0.00	29.619 
19:50	76.7	76.7	78.5	62	62.7	2	8	315	0.00	29.619 
19:55	76.5	76.5	78.4	61	62.0	3	5	315	0.00	29.619 
20:00	76.1	76.1	78.1	61	61.7	2	9	315	0.00	29.627 
20:05	76.1	76.1	78.1	61	61.7	3	7	315	0.00	29.627 
20:10	76.0	76.0	78.0	61	61.6	2	5	270	0.00	29.627 
20:15	75.8	75.8	77.9	60	60.9	2	6	315	0.00	29.632 
20:20	75.8	75.8	77.9	58	59.9	2	6	270	0.00	29.632 
20:25	75.6	75.6	77.8	57	59.3	2	4	270	0.00	29.632 
20:30	75.6	75.6	77.8	57	59.3	2	3	315	0.00	29.636 
20:35	75.4	75.4	77.7	56	58.6	3	5	292	0.00	29.636 
20:40	75.3	75.3	77.6	57	59.0	1	3	315	0.00	29.636 
20:45	75.1	75.1	77.6	56	58.3	2	4	315	0.00	29.637 
20:50	74.9	74.9	74.9	57	58.6	1	3	315	0.00	29.637 
20:55	74.7	74.7	74.7	57	58.4	2	5	292	0.00	29.637 
21:00	74.6	74.6	74.6	58	58.8	2	5	292	0.00	29.640 
21:05	74.4	74.4	74.4	58	58.6	2	5	270	0.00	29.640 
21:10	74.0	74.0	74.0	58	58.3	1	2	315	0.00	29.640 
21:15	73.9	73.9	73.9	59	58.7	1	4	315	0.00	29.652 
21:20	73.7	73.7	73.7	60	58.9	0	2	315	0.00	29.652 
21:25	73.3	73.3	73.3	61	59.0	1	2	315	0.00	29.652 
21:30	73.2	73.2	73.2	61	58.9	1	4	315	0.00	29.660 
21:35	73.0	73.0	73.0	61	58.7	0	2	315	0.00	29.660 
21:40	72.8	72.8	72.8	62	59.0	0	1	315	0.00	29.660 
21:45	72.5	72.5	72.5	62	58.7	0	1	315	0.00	29.663 
21:50	72.3	72.3	72.3	62	58.5	0	1	315	0.00	29.663 
21:55	72.1	72.1	72.1	62	58.3	0	1	315	0.00	29.663 
22:00	72.0	72.0	72.0	63	58.7	0	1	315	0.00	29.670 
22:05	71.6	71.6	71.6	63	58.3	0	2	315	0.00	29.670 
22:10	71.6	71.6	71.6	63	58.3	0	1	315	0.00	29.670 
22:15	71.5	71.5	71.5	64	58.7	0	0	---	0.00	29.675 
22:20	71.1	71.1	71.1	64	58.3	0	0	---	0.00	29.675 
22:25	70.9	70.9	70.9	65	58.5	0	1	315	0.00	29.675 
22:30	70.8	70.8	70.8	65	58.4	0	0	---	0.00	29.684 
22:35	70.4	70.4	70.4	65	58.1	0	0	---	0.00	29.684 
22:40	70.3	70.3	70.3	65	58.0	0	0	---	0.00	29.684 
22:45	70.3	70.3	70.3	66	58.4	0	0	---	0.00	29.689 
22:50	69.9	69.9	69.9	66	58.0	0	0	---	0.00	29.689 
22:55	69.6	69.6	69.6	67	58.1	0	0	---	0.00	29.689 
23:00	69.3	69.3	69.3	68	58.3	0	0	---	0.00	29.689 
23:05	69.1	69.1	69.1	69	58.5	0	0	---	0.00	29.689 
23:10	68.8	68.8	68.8	70	58.6	0	0	---	0.00	29.689 
23:15	68.8	68.8	68.8	70	58.6	0	0	---	0.00	29.686 
23:20	68.6	68.6	68.6	71	58.8	0	0	---	0.00	29.686 
23:25	68.6	68.6	68.6	71	58.8	0	0	---	0.00	29.686 
23:30	68.4	68.4	68.4	71	58.6	0	0	---	0.00	29.685 
23:35	68.3	68.3	68.3	72	58.9	0	0	---	0.00	29.685 
23:40	67.9	67.9	67.9	73	58.9	0	0	---	0.00	29.685 
23:45	67.8	67.8	67.8	73	58.8	0	0	---	0.00	29.687 
23:50	67.4	67.4	67.4	74	58.8	0	0	---	0.00	29.687 
23:55	67.3	67.3	67.3	75	59.1	0	0	---	0.00	29.687 

CoCoRaHS
IN-AL-39
A2 Web Hosting
Creative Commons License
GoDaddy
search engine by freefind advanced

loaded 2018-11-15 13:29:36 • last modified 2010-11-18 10:43:29
Privacy PolicyDisclaimer
• wx.awcolley.com is powered by PmWiki v.2002016 •
• all content (unless otherwise noted) © 2018 A W Colley